createdAt,value
2022-10-18T00:02:43.463Z,99486.63
2022-10-18T00:05:46.103Z,99493.09
2022-10-18T00:08:48.169Z,99503.63
2022-10-18T00:11:50.285Z,99499.09
2022-10-18T00:14:52.421Z,99506.41
2022-10-18T00:17:54.495Z,99499.22
2022-10-18T00:21:08.590Z,99499.47
2022-10-18T00:24:10.765Z,99492.00
2022-10-18T00:27:12.869Z,99483.53
2022-10-18T00:30:15.448Z,99490.50
2022-10-18T00:33:17.700Z,99500.47
2022-10-18T00:36:19.963Z,99503.06
2022-10-18T00:39:22.264Z,99508.34
2022-10-18T00:42:31.228Z,99506.84
2022-10-18T00:45:33.586Z,99511.63
2022-10-18T00:48:35.681Z,99512.53
2022-10-18T00:51:55.249Z,99520.44
2022-10-18T00:54:57.367Z,99532.06
2022-10-18T00:57:59.396Z,99543.13
2022-10-18T01:01:01.458Z,99543.44
2022-10-18T01:04:03.551Z,99549.56
2022-10-18T01:07:36.723Z,99562.53
2022-10-18T01:11:00.559Z,99562.59
2022-10-18T01:14:08.238Z,99572.84
2022-10-18T01:17:13.252Z,99577.66
2022-10-18T01:20:39.955Z,99598.47
2022-10-18T01:24:38.425Z,99613.38
2022-10-18T01:27:48.810Z,99620.16
2022-10-18T01:31:03.783Z,99630.16
2022-10-18T01:34:07.853Z,99629.25
2022-10-18T01:37:11.901Z,99624.88
2022-10-18T01:40:14.743Z,99626.00
2022-10-18T01:43:17.301Z,99598.59
2022-10-18T01:46:21.505Z,99593.31
2022-10-18T01:49:24.216Z,99583.56
2022-10-18T01:52:26.363Z,99589.09
2022-10-18T01:55:46.139Z,99598.19
2022-10-18T01:59:12.419Z,99636.50
2022-10-18T02:02:37.528Z,99659.25
2022-10-18T02:05:51.410Z,99674.75
2022-10-18T02:09:19.270Z,99687.38
2022-10-18T02:12:21.293Z,99692.25
2022-10-18T02:15:28.860Z,99687.13
2022-10-18T02:18:36.316Z,99683.75
2022-10-18T02:21:38.899Z,99681.84
2022-10-18T02:24:48.636Z,99666.53
2022-10-18T02:27:51.014Z,99649.84
2022-10-18T02:31:27.130Z,99645.22
2022-10-18T02:34:44.292Z,99641.78
2022-10-18T02:37:46.994Z,99660.53
2022-10-18T02:40:49.021Z,99674.97
2022-10-18T02:43:51.062Z,99676.81
2022-10-18T02:46:53.406Z,99669.06
2022-10-18T02:49:55.421Z,99689.19
2022-10-18T02:52:57.460Z,99695.91
2022-10-18T02:55:59.486Z,99703.94
2022-10-18T02:59:01.754Z,99691.84
2022-10-18T03:02:03.802Z,99688.16
2022-10-18T03:05:06.032Z,99687.50
2022-10-18T03:08:08.092Z,99706.81
2022-10-18T03:11:10.143Z,99698.81
2022-10-18T03:14:12.200Z,99705.97
2022-10-18T03:17:14.271Z,99705.41
2022-10-18T03:20:16.319Z,99707.66
2022-10-18T03:23:18.402Z,99712.03
2022-10-18T03:26:21.580Z,99702.44
2022-10-18T03:29:23.646Z,99711.97
2022-10-18T03:32:25.689Z,99719.97
2022-10-18T03:35:27.743Z,99725.88
2022-10-18T03:38:29.789Z,99714.84
2022-10-18T03:41:31.799Z,99706.00
2022-10-18T03:44:33.839Z,99711.53
2022-10-18T03:47:35.899Z,99716.09
2022-10-18T03:50:37.955Z,99707.63
2022-10-18T03:53:40.506Z,99695.13
2022-10-18T03:56:42.540Z,99701.19
2022-10-18T03:59:44.658Z,99705.56
2022-10-18T04:02:46.788Z,99726.88
2022-10-18T04:05:50.468Z,99723.41
2022-10-18T04:08:52.519Z,99739.47
2022-10-18T04:11:54.598Z,99745.81
2022-10-18T04:14:56.634Z,99751.44
2022-10-18T04:17:58.918Z,99766.97
2022-10-18T04:21:00.962Z,99782.41
2022-10-18T04:24:03.050Z,99779.69
2022-10-18T04:27:06.025Z,99767.13
2022-10-18T04:30:08.726Z,99773.69
2022-10-18T04:33:10.749Z,99768.06
2022-10-18T04:36:12.783Z,99757.84
2022-10-18T04:39:14.905Z,99764.66
2022-10-18T04:42:17.153Z,99767.94
2022-10-18T04:45:19.161Z,99760.31
2022-10-18T04:48:21.239Z,99758.56
2022-10-18T04:51:23.306Z,99763.44
2022-10-18T04:54:27.897Z,99772.22
2022-10-18T04:57:30.988Z,99784.06
2022-10-18T05:00:37.790Z,99789.94
2022-10-18T05:03:42.057Z,99788.53
2022-10-18T05:06:44.094Z,99792.41
2022-10-18T05:09:46.120Z,99800.09
2022-10-18T05:12:48.260Z,99814.63
2022-10-18T05:15:50.412Z,99820.03
2022-10-18T05:18:52.469Z,99819.38
2022-10-18T05:21:54.532Z,99812.66
2022-10-18T05:24:56.566Z,99823.66
2022-10-18T05:28:00.922Z,99836.91
2022-10-18T05:31:06.158Z,99839.13
2022-10-18T05:34:08.205Z,99846.56
2022-10-18T05:37:10.381Z,99850.28
2022-10-18T05:40:12.847Z,99849.97
2022-10-18T05:43:14.967Z,99830.47
2022-10-18T05:46:17.003Z,99835.22
2022-10-18T05:49:19.192Z,99850.34
2022-10-18T05:52:21.471Z,99856.69
2022-10-18T05:55:24.135Z,99853.72
2022-10-18T05:58:26.198Z,99853.13
2022-10-18T06:01:28.242Z,99864.47
2022-10-18T06:04:30.302Z,99872.78
2022-10-18T06:07:32.491Z,99883.97
2022-10-18T06:10:34.729Z,99877.44
2022-10-18T06:13:43.909Z,99886.81
2022-10-18T06:16:45.931Z,99899.22
2022-10-18T06:19:47.961Z,99895.44
2022-10-18T06:22:53.497Z,99904.91
2022-10-18T06:26:00.704Z,99909.69
2022-10-18T06:29:02.756Z,99901.53
2022-10-18T06:32:05.843Z,99892.13
2022-10-18T06:35:08.534Z,99896.78
2022-10-18T06:38:10.558Z,99899.00
2022-10-18T06:41:12.704Z,99899.53
2022-10-18T06:44:14.820Z,99905.50
2022-10-18T06:47:16.853Z,99912.31
2022-10-18T06:50:18.882Z,99927.50
2022-10-18T06:53:20.959Z,99936.41
2022-10-18T06:56:22.986Z,99935.94
2022-10-18T06:59:27.527Z,99941.56
2022-10-18T07:02:32.921Z,99933.88
2022-10-18T07:05:35.244Z,99940.13
2022-10-18T07:08:38.017Z,99954.03
2022-10-18T07:11:40.075Z,99970.72
2022-10-18T07:14:42.093Z,99975.44
2022-10-18T07:17:46.847Z,99966.88
2022-10-18T07:20:48.893Z,99967.31
2022-10-18T07:23:51.123Z,99977.94
2022-10-18T07:26:53.146Z,99976.38
2022-10-18T07:29:55.175Z,99985.00
2022-10-18T07:32:57.201Z,99994.50
2022-10-18T07:36:03.466Z,100007.91
2022-10-18T07:39:05.572Z,100017.38
2022-10-18T07:42:07.623Z,100027.03
2022-10-18T07:45:10.513Z,100020.81
2022-10-18T07:48:12.548Z,100015.78
2022-10-18T07:51:14.674Z,100031.22
2022-10-18T07:54:16.789Z,100035.13
2022-10-18T07:57:18.847Z,100040.31
2022-10-18T08:00:20.893Z,100043.66
2022-10-18T08:03:23.025Z,100049.97
2022-10-18T08:06:25.039Z,100054.63
2022-10-18T08:09:27.218Z,100072.72
2022-10-18T08:12:29.283Z,100076.31
2022-10-18T08:15:31.331Z,100083.84
2022-10-18T08:18:33.586Z,100088.44
2022-10-18T08:21:35.695Z,100093.13
2022-10-18T08:24:37.726Z,100089.72
2022-10-18T08:27:39.755Z,100092.94
2022-10-18T08:30:41.828Z,100090.34
2022-10-18T08:33:44.064Z,100101.63
2022-10-18T08:36:46.095Z,100109.41
2022-10-18T08:39:48.183Z,100095.59
2022-10-18T08:43:07.445Z,100097.97
2022-10-18T08:46:11.974Z,100089.47
2022-10-18T08:49:32.529Z,100100.31
2022-10-18T08:52:52.547Z,100109.53
2022-10-18T08:56:16.293Z,100103.41
2022-10-18T08:59:21.965Z,100109.53
2022-10-18T09:02:55.090Z,100118.72
2022-10-18T09:06:14.284Z,100117.09
2022-10-18T09:09:37.346Z,100138.41
2022-10-18T09:13:05.162Z,100140.94
2022-10-18T09:16:21.731Z,100130.75
2022-10-18T09:23:19.794Z,100151.19
2022-10-18T09:26:23.703Z,100160.97
2022-10-18T09:30:09.742Z,100158.16
2022-10-18T09:33:48.555Z,100163.13
2022-10-18T09:36:51.780Z,100162.72
2022-10-18T09:40:01.335Z,100163.53
2022-10-18T09:43:25.716Z,100161.19
2022-10-18T09:46:31.583Z,100167.75
2022-10-18T09:49:57.755Z,100173.63
2022-10-18T09:53:17.614Z,100178.63
2022-10-18T09:56:58.077Z,100170.66
2022-10-18T10:00:00.658Z,100157.03
2022-10-18T10:03:07.519Z,100173.03
2022-10-18T10:06:12.647Z,100175.78
2022-10-18T10:09:16.203Z,100186.13
2022-10-18T10:12:33.122Z,100180.66
2022-10-18T10:15:39.301Z,100179.47
2022-10-18T10:18:43.851Z,100181.47
2022-10-18T10:21:47.591Z,100188.25
2022-10-18T10:24:54.202Z,100189.97
2022-10-18T10:27:56.273Z,100198.56
2022-10-18T10:31:28.025Z,100192.91
2022-10-18T10:34:30.732Z,100208.31
2022-10-18T10:37:36.264Z,100217.28
2022-10-18T10:40:50.364Z,100204.28
2022-10-18T10:43:52.428Z,100207.66
2022-10-18T10:46:55.002Z,100201.31
2022-10-18T10:49:57.034Z,100205.19
2022-10-18T10:52:59.082Z,100211.81
2022-10-18T10:56:01.617Z,100217.53
2022-10-18T10:59:18.083Z,100211.59
2022-10-18T11:02:22.248Z,100211.13
2022-10-18T11:05:26.980Z,100220.91
2022-10-18T11:08:39.087Z,100227.31
2022-10-18T11:11:46.750Z,100219.38
2022-10-18T11:15:41.598Z,100220.28
2022-10-18T11:18:44.671Z,100214.69
2022-10-18T11:21:46.699Z,100219.75
2022-10-18T11:24:48.751Z,100229.38
2022-10-18T11:28:03.204Z,100234.69
2022-10-18T11:31:35.699Z,100235.88
2022-10-18T11:35:28.567Z,100238.38
2022-10-18T11:38:58.172Z,100241.41
2022-10-18T11:42:24.459Z,100233.25
2022-10-18T11:45:41.434Z,100229.56
2022-10-18T11:49:41.088Z,100238.09
2022-10-18T11:52:50.647Z,100232.41
2022-10-18T11:56:36.452Z,100238.47
2022-10-18T12:00:08.779Z,100237.91
2022-10-18T12:03:41.549Z,100241.25
2022-10-18T12:06:44.458Z,100237.31
2022-10-18T12:12:58.864Z,100255.78
2022-10-18T12:16:02.829Z,100238.69
2022-10-18T12:19:11.715Z,100230.91
2022-10-18T12:22:23.886Z,100225.56
2022-10-18T12:25:25.979Z,100236.72
2022-10-18T12:28:37.612Z,100233.00
2022-10-18T12:31:45.370Z,100227.66
2022-10-18T12:34:59.992Z,100228.59
2022-10-18T12:38:21.469Z,100238.31
2022-10-18T12:41:32.743Z,100239.41
2022-10-18T12:44:35.270Z,100231.53
2022-10-18T12:47:37.977Z,100242.56
2022-10-18T12:50:42.181Z,100248.66
2022-10-18T12:53:52.395Z,100245.03
2022-10-18T12:56:54.472Z,100246.19
2022-10-18T12:59:56.521Z,100252.53
2022-10-18T13:03:24.938Z,100254.16
2022-10-18T13:06:26.971Z,100253.63
2022-10-18T13:09:30.246Z,100245.28
2022-10-18T13:13:12.206Z,100247.59
2022-10-18T13:16:39.242Z,100247.81
2022-10-18T13:20:24.038Z,100263.78
2022-10-18T13:23:35.440Z,100262.78
2022-10-18T13:26:54.154Z,100258.72
2022-10-18T13:30:29.927Z,100254.72
2022-10-18T13:33:35.202Z,100267.38
2022-10-18T13:36:37.248Z,100254.50
2022-10-18T13:39:39.567Z,100257.81
2022-10-18T13:42:41.653Z,100260.03
2022-10-18T13:45:45.411Z,100252.63
2022-10-18T13:48:52.800Z,100261.78
2022-10-18T13:52:15.643Z,100250.25
2022-10-18T13:55:53.586Z,100255.00
2022-10-18T13:59:14.411Z,100250.44
2022-10-18T14:02:58.686Z,100258.44
2022-10-18T14:06:46.658Z,100259.69
2022-10-18T14:09:54.953Z,100262.44
2022-10-18T14:12:58.445Z,100264.25
2022-10-18T14:16:09.350Z,100265.53
2022-10-18T14:19:19.273Z,100279.59
2022-10-18T14:22:43.627Z,100282.78
2022-10-18T14:25:45.766Z,100277.31
2022-10-18T14:29:06.287Z,100280.19
2022-10-18T14:32:27.624Z,100281.47
2022-10-18T14:35:33.225Z,100285.31
2022-10-18T14:38:53.551Z,100286.22
2022-10-18T14:41:56.803Z,100274.63
2022-10-18T14:44:59.116Z,100278.38
2022-10-18T14:48:23.691Z,100286.00
2022-10-18T14:51:27.331Z,100289.22
2022-10-18T14:54:36.455Z,100285.81
2022-10-18T14:57:38.589Z,100292.13
2022-10-18T15:00:41.900Z,100286.97
2022-10-18T15:03:46.027Z,100296.53
2022-10-18T15:06:48.926Z,100288.78
2022-10-18T15:09:50.990Z,100300.81
2022-10-18T15:13:10.279Z,100304.41
2022-10-18T15:16:18.444Z,100297.03
2022-10-18T15:19:39.384Z,100293.59
2022-10-18T15:22:41.495Z,100305.09
2022-10-18T15:25:43.527Z,100300.25
2022-10-18T15:28:54.154Z,100301.66
2022-10-18T15:31:56.412Z,100300.06
2022-10-18T15:35:34.757Z,100297.59
2022-10-18T15:38:37.416Z,100289.06
2022-10-18T15:42:05.183Z,100287.22
2022-10-18T15:45:35.893Z,100290.34
2022-10-18T15:48:41.749Z,100291.34
2022-10-18T15:51:55.462Z,100294.16
2022-10-18T15:54:57.978Z,100279.06
2022-10-18T15:58:04.857Z,100288.56
2022-10-18T16:01:16.983Z,100277.91
2022-10-18T16:04:26.138Z,100292.75
2022-10-18T16:07:28.204Z,100295.56
2022-10-18T16:10:30.283Z,100292.22
2022-10-18T16:13:32.349Z,100292.97
2022-10-18T16:16:34.441Z,100295.66
2022-10-18T16:19:36.539Z,100291.88
2022-10-18T16:22:38.848Z,100295.03
2022-10-18T16:25:41.152Z,100292.84
2022-10-18T16:28:43.676Z,100306.91
2022-10-18T16:31:46.758Z,100300.31
2022-10-18T16:34:48.791Z,100297.94
2022-10-18T16:37:50.820Z,100301.47
2022-10-18T16:40:53.538Z,100308.56
2022-10-18T16:43:55.568Z,100312.47
2022-10-18T16:46:57.611Z,100320.00
2022-10-18T16:50:04.087Z,100316.31
2022-10-18T16:53:08.706Z,100323.94
2022-10-18T16:56:33.452Z,100317.84
2022-10-18T16:59:35.486Z,100315.59
2022-10-18T17:02:37.580Z,100315.19
2022-10-18T17:05:40.686Z,100316.78
2022-10-18T17:08:42.754Z,100308.63
2022-10-18T17:11:44.797Z,100312.34
2022-10-18T17:14:46.821Z,100307.19
2022-10-18T17:17:50.089Z,100308.03
2022-10-18T17:20:52.254Z,100317.44
2022-10-18T17:23:54.618Z,100312.75
2022-10-18T17:26:56.675Z,100328.69
2022-10-18T17:29:58.715Z,100333.81
2022-10-18T17:33:00.755Z,100336.28
2022-10-18T17:36:03.010Z,100345.03
2022-10-18T17:39:05.522Z,100358.34
2022-10-18T17:42:07.594Z,100358.13
2022-10-18T17:45:10.287Z,100353.84
2022-10-18T17:48:12.301Z,100348.94
2022-10-18T17:51:15.866Z,100347.50
2022-10-18T17:54:17.892Z,100352.81
2022-10-18T17:57:19.964Z,100356.09
2022-10-18T18:00:24.491Z,100349.16
2022-10-18T18:03:26.649Z,100349.34
2022-10-18T18:06:31.381Z,100346.25
2022-10-18T18:09:33.560Z,100345.84
2022-10-18T18:12:35.788Z,100345.84
2022-10-18T18:15:38.188Z,100348.69
2022-10-18T18:18:40.287Z,100355.63
2022-10-18T18:21:42.890Z,100357.13
2022-10-18T18:24:44.968Z,100355.06
2022-10-18T18:27:47.038Z,100356.44
2022-10-18T18:30:49.073Z,100353.19
2022-10-18T18:33:52.666Z,100355.31
2022-10-18T18:36:55.007Z,100364.75
2022-10-18T18:39:57.098Z,100362.59
2022-10-18T18:43:12.196Z,100375.38
2022-10-18T18:46:21.972Z,100362.56
2022-10-18T18:49:24.526Z,100356.47
2022-10-18T18:52:26.682Z,100357.94
2022-10-18T18:55:28.686Z,100363.94
2022-10-18T18:58:31.253Z,100359.94
2022-10-18T19:01:37.326Z,100344.59
2022-10-18T19:04:41.285Z,100342.69
2022-10-18T19:07:43.308Z,100342.53
2022-10-18T19:10:49.078Z,100343.03
2022-10-18T19:13:51.105Z,100344.47
2022-10-18T19:16:54.689Z,100347.97
2022-10-18T19:19:58.851Z,100355.28
2022-10-18T19:23:00.935Z,100356.03
2022-10-18T19:26:13.714Z,100353.97
2022-10-18T19:29:30.251Z,100346.69
2022-10-18T19:32:32.326Z,100349.16
2022-10-18T19:35:34.475Z,100353.59
2022-10-18T19:38:36.525Z,100367.50
2022-10-18T19:41:38.647Z,100371.59
2022-10-18T19:44:41.767Z,100362.53
2022-10-18T19:47:43.966Z,100363.00
2022-10-18T19:50:46.163Z,100363.63
2022-10-18T19:53:48.274Z,100357.75
2022-10-18T19:56:50.451Z,100360.88
2022-10-18T19:59:52.702Z,100360.94
2022-10-18T20:02:54.742Z,100367.91
2022-10-18T20:05:58.031Z,100365.22
2022-10-18T20:09:00.177Z,100367.09
2022-10-18T20:12:02.276Z,100368.88
2022-10-18T20:15:05.655Z,100381.81
2022-10-18T20:18:07.887Z,100378.22
2022-10-18T20:21:11.671Z,100372.94
2022-10-18T20:24:13.799Z,100373.97
2022-10-18T20:27:15.899Z,100376.44
2022-10-18T20:30:18.247Z,100382.84
2022-10-18T20:33:20.346Z,100381.81
2022-10-18T20:36:22.462Z,100374.75
2022-10-18T20:39:24.629Z,100371.50
2022-10-18T20:42:26.691Z,100371.88
2022-10-18T20:45:28.729Z,100370.63
2022-10-18T20:48:31.597Z,100363.59
2022-10-18T20:51:34.103Z,100350.59
2022-10-18T20:54:36.299Z,100358.66
2022-10-18T20:57:38.808Z,100350.88
2022-10-18T21:00:41.321Z,100347.78
2022-10-18T21:03:45.124Z,100350.47
2022-10-18T21:06:47.267Z,100351.44
2022-10-18T21:09:49.419Z,100342.50
2022-10-18T21:12:52.234Z,100340.25
2022-10-18T21:15:56.333Z,100340.56
2022-10-18T21:19:06.276Z,100343.47
2022-10-18T21:22:08.326Z,100327.41
2022-10-18T21:25:10.502Z,100328.19
2022-10-18T21:28:12.866Z,100328.72
2022-10-18T21:31:23.159Z,100325.09
2022-10-18T21:34:25.257Z,100329.88
2022-10-18T21:37:27.594Z,100322.34
2022-10-18T21:40:29.674Z,100318.28
2022-10-18T21:43:31.783Z,100315.63
2022-10-18T21:46:33.890Z,100323.63
2022-10-18T21:49:36.080Z,100327.78
2022-10-18T21:52:38.263Z,100322.06
2022-10-18T21:55:40.313Z,100308.25
2022-10-18T21:58:42.563Z,100325.50
2022-10-18T22:01:45.728Z,100313.84
2022-10-18T22:04:49.644Z,100315.16
2022-10-18T22:07:51.732Z,100308.84
2022-10-18T22:10:53.816Z,100317.09
2022-10-18T22:13:56.426Z,100310.03
2022-10-18T22:16:58.479Z,100318.00
2022-10-18T22:20:00.540Z,100309.91
2022-10-18T22:23:02.623Z,100309.34
2022-10-18T22:26:13.177Z,100307.78
2022-10-18T22:29:20.197Z,100305.00
2022-10-18T22:32:22.280Z,100305.75
2022-10-18T22:35:24.413Z,100307.00
2022-10-18T22:38:26.482Z,100297.06
2022-10-18T22:41:28.579Z,100303.38
2022-10-18T22:44:30.644Z,100305.06
2022-10-18T22:47:33.013Z,100294.03
2022-10-18T22:50:35.251Z,100303.09
2022-10-18T22:53:37.603Z,100294.47
2022-10-18T22:56:39.663Z,100301.28
2022-10-18T22:59:41.711Z,100293.63
2022-10-18T23:02:43.859Z,100292.09
2022-10-18T23:05:46.771Z,100290.63
2022-10-18T23:08:49.147Z,100294.34
2022-10-18T23:11:52.969Z,100293.19
2022-10-18T23:14:55.026Z,100287.72
2022-10-18T23:17:59.770Z,100283.78
2022-10-18T23:21:07.450Z,100285.41
2022-10-18T23:24:09.398Z,100284.13
2022-10-18T23:27:11.550Z,100287.25
2022-10-18T23:30:13.610Z,100289.69
2022-10-18T23:33:15.667Z,100284.19
2022-10-18T23:36:17.742Z,100275.19
2022-10-18T23:39:19.897Z,100266.22
2022-10-18T23:42:21.944Z,100271.22
2022-10-18T23:45:23.973Z,100277.75
2022-10-18T23:48:26.177Z,100275.81
2022-10-18T23:51:28.233Z,100275.97
2022-10-18T23:54:30.265Z,100270.88
2022-10-18T23:57:32.538Z,100279.41
